Rennerdale, Pennsylvania
Current Conditions -  °F | °C
As of 5:06 AM on Tuesday 21 Oct 2014 (Local Time) from KPIT Reporting Station
Overcast Overcast  
Wind Chill: 50°   Ceiling: 1300
Heat Index: 50°   Visibility: 9mi
Dew Point: 49°   Wind: 7mph
Humidity: 96%   Direction: 260°W
Pressure: 29.84"   Gusts: NA
Location:  40.4095°N, 80.1154°W
Report Text: KPIT 210906Z 26006KT 9SM BKN013 BKN038 OVC070 10/09 A2984 RMK AO2 T01000094
Loading
Personal Weather Stations






























Interactive Weather Map
Tropical Storm Tracking
New forecast layout! Learn more

10-Day Weather Forecast

Advertisements
Track Severe Weather on mobile